Peutz Valley (1458, 357, 356, 1147) Station Data

Red Flag Warning: No
Fire Weather Zone: 250
SDGE Region: Eastern
Lat/Lon: 32.859/-116.768

Observations

Time Wind Speed/Gust Temp(F) RH Fuel Moist Fuel Temp(F) Dewpt(F) Tmax(F) Tmin(F) Accum Precip 10-min Precip SL Press(mb)
4/26 2:40am 83 3 G 5 49° 85% - - 44° 53.2° 48.2° - - -
4/26 2:30am 99 2 G 3 49° 84% - - 44° 53.2° 48.2° - - -
4/26 2:20am 93 1 G 4 50° 81% - - 45° 53.2° 48.7° - - -
4/26 2:10am 76 3 G 5 50° 82% - - 45° 53.2° 48.8° - - -
4/26 2:00am 79 2 G 4 50° 84% - - 45° 53.2° 48.8° - - -
4/26 1:50am 173 1 G 2 50° 81% - - 45° 53.2° 49° - - -
4/26 1:40am 64 3 G 5 52° 81% - - 46° 53.2° 49° - - -
4/26 1:30am 64 4 G 6 51° 83% - - 46° 53.2° 49° - - -
4/26 1:20am 96 2 G 4 50° 82% - - 45° 53.2° 49° - - -
4/26 1:10am 57 4 G 7 51° 83% - - 46° 53.2° 49° - - -
4/26 1:00am 76 3 G 5 51° 83% - - 46° 53.2° 49° - - -
4/26 12:50am 224 1 G 3 51° 81% - - 46° 53.2° 49° - - -
4/26 12:40am 90 5 G 9 52° 83% - - 47° 53.2° 49° - - -
4/26 12:30am 73 5 G 6 50° 85% - - 46° 51.4° 49° - - -
4/26 12:20am 85 2 G 4 50° 84% - - 45° 51.4° 49° - - -
4/26 12:10am 67 1 G 2 51° 83% - - 46° 51.4° 50.2° - - -
4/26 12:00am 191 1 G 2 51° 81% - - 45° 65.5° 49.6° - - -
4/25 11:50pm 71 3 G 5 52° 81% - - 47° 65.5° 49.6° - - -
4/25 11:40pm 77 4 G 6 51° 82% - - 46° 65.5° 49.6° - - -
4/25 11:30pm 90 1 G 3 51° 82% - - 46° 65.5° 49.6° - - -
4/25 11:20pm 94 2 G 4 51° 80% - - 45° 65.5° 49.6° - - -
4/25 11:10pm 51 2 G 4 52° 81% - - 46° 65.5° 49.6° - - -
4/25 11:00pm 69 2 G 4 51° 83% - - 46° 65.5° 49.6° - - -
4/25 10:50pm 91 1 G 3 51° 80% - - 45° 65.5° 49.6° - - -
4/25 10:40pm 79 2 G 4 53° 77% - - 46° 65.5° 51.3° - - -
4/25 10:30pm 75 4 G 5 53° 77% - - 46° 65.5° 52.3° - - -
4/25 10:20pm 73 4 G 6 53° 76% - - 46° 65.5° 52.3° - - -
4/25 10:10pm 74 5 G 7 53° 76% - - 46° 65.5° 52.6° - - -
4/25 10:00pm 71 5 G 6 53° 76% - - 46° 65.5° 52.6° - - -
4/25 9:50pm 74 5 G 6 53° 75% - - 45° 65.5° 52.7° - - -
4/25 9:40pm 70 4 G 5 54° 74% - - 46° 65.5° 53.1° - - -
4/25 9:30pm 67 4 G 5 54° 74% - - 46° 65.5° 53.1° - - -
4/25 9:20pm 71 4 G 6 54° 74% - - 46° 65.5° 53.3° - - -
4/25 9:10pm 73 4 G 6 54° 73% - - 45° 65.5° 53.3° - - -
4/25 9:00pm 74 4 G 6 54° 73% - - 46° 65.5° 53.4° - - -
4/25 8:50pm 69 3 G 5 54° 73% - - 46° 65.5° 53.4° - - -
4/25 8:40pm 73 3 G 4 54° 72% - - 46° 65.5° 53.4° - - -
4/25 8:30pm 78 3 G 5 54° 72% - - 46° 65.5° 53.4° - - -
4/25 8:20pm 75 3 G 5 55° 72% - - 46° 65.5° 53.4° - - -
4/25 8:10pm 73 2 G 5 55° 72% - - 46° 65.5° 53.4° - - -
4/25 8:00pm 77 2 G 3 55° 71% - - 46° 65.5° 53.4° - - -
4/25 7:50pm 84 1 G 2 56° 69% - - 46° 65.5° 53.4° - - -
4/25 7:40pm 88 1 G 2 57° 66% - - 46° 65.5° 53.4° - - -
4/25 7:30pm 237 1 G 3 58° 65% - - 46° 65.5° 53.4° - - -
4/25 7:20pm 245 2 G 4 59° 63% - - 46° 65.5° 53.4° - - -
4/25 7:10pm 267 4 G 6 59° 63% - - 47° 65.5° 53.4° - - -
4/25 7:00pm 254 4 G 7 60° 62% - - 47° 65.5° 53.4° - - -
4/25 6:50pm 265 5 G 8 60° 62% - - 47° 65.5° 53.4° - - -
4/25 6:40pm 266 5 G 9 60° 62% - - 47° 65.5° 53.4° - - -
4/25 6:20pm 266 5 G 9 61° 62% - - 48° 65.5° 53.4° - - -
4/25 6:10pm 268 6 G 9 61° 62% - - 48° 65.5° 53.4° - - -
4/25 6:00pm 265 6 G 10 61° 63% - - 49° 65.5° 53.4° - - -
4/25 5:50pm 249 6 G 10 62° 63% - - 49° 65.5° 53.4° - - -
4/25 5:40pm 271 6 G 10 62° 65% - - 50° 65.5° 53.4° - - -
4/25 5:30pm 237 4 G 9 62° 66% - - 50° 65.5° 53.4° - - -
4/25 5:20pm 242 4 G 12 62° 66% - - 50° 65.5° 53.4° - - -
4/25 5:10pm 245 4 G 9 61° 67% - - 50° 65.5° 53.4° - - -
4/25 5:00pm 258 5 G 10 62° 66% - - 50° 65.5° 53.4° - - -
4/25 4:50pm 255 5 G 10 62° 65% - - 50° 65.5° 53.4° - - -
4/25 4:40pm 270 5 G 13 63° 63% - - 50° 65.5° 53.4° - - -
4/25 4:30pm 258 7 G 12 63° 63% - - 50° 65.5° 53.4° - - -
4/25 4:20pm 251 6 G 13 63° 63% - - 50° 65.5° 53.4° - - -
4/25 4:10pm 258 7 G 12 63° 63% - - 50° 65.5° 53.4° - - -
4/25 4:00pm 250 6 G 11 64° 61% - - 50° 65.5° 53.4° - - -
4/25 3:50pm 249 6 G 13 63° 63% - - 50° 65.5° 53.4° - - -
4/25 3:40pm 261 6 G 10 63° 63% - - 50° 65.5° 53.4° - - -
4/25 3:30pm 259 6 G 10 63° 63% - - 50° 65.5° 53.4° - - -
4/25 3:20pm 264 7 G 11 62° 64% - - 50° 65.5° 53.4° - - -
4/25 3:10pm 251 7 G 14 62° 65% - - 51° 65.5° 53.4° - - -
4/25 3:00pm 257 7 G 13 63° 63% - - 50° 65.5° 53.4° - - -
4/25 2:50pm 258 7 G 14 63° 62% - - 50° 65.5° 53.4° - - -
4/25 2:40pm 261 7 G 12 63° 62% - - 50° 65.5° 53.4° - - -
4/25 2:30pm 267 6 G 13 64° 60% - - 50° 65.5° 53.4° - - -
4/25 2:20pm 260 8 G 14 64° 60% - - 50° 65.5° 53.4° - - -
4/25 2:10pm 265 7 G 13 63° 60% - - 49° 65.5° 53.4° - - -
4/25 2:00pm 274 7 G 12 64° 59% - - 49° 65.5° 53.4° - - -
4/25 1:50pm 281 5 G 13 64° 59% - - 49° 65.5° 53.4° - - -
4/25 1:40pm 269 7 G 12 64° 58% - - 49° 65.5° 53.4° - - -
4/25 1:30pm 270 5 G 12 64° 59% - - 49° 64.6° 53.4° - - -
4/25 1:20pm 275 6 G 11 63° 59% - - 49° 64.6° 53.4° - - -
4/25 1:10pm 272 6 G 11 63° 59% - - 49° 64.6° 53.4° - - -
4/25 1:00pm 269 5 G 10 63° 59% - - 49° 64.6° 53.4° - - -
4/25 12:50pm 257 6 G 11 63° 59% - - 49° 64.6° 53.4° - - -
4/25 12:40pm 251 6 G 13 63° 58% - - 48° 64.6° 53.4° - - -
4/25 12:30pm 259 6 G 10 64° 57% - - 48° 64.6° 53.4° - - -
4/25 12:20pm 274 5 G 8 63° 57% - - 48° 64.4° 53.4° - - -
4/25 12:10pm 271 4 G 10 63° 58% - - 48° 64.4° 53.4° - - -
4/25 12:00pm 255 5 G 8 63° 58% - - 48° 64.4° 53.4° - - -
4/25 11:50am 260 6 G 14 63° 59% - - 48° 63.7° 53.4° - - -
4/25 11:40am 236 5 G 11 63° 59% - - 48° 63.7° 53.4° - - -
4/25 11:30am 256 5 G 11 63° 60% - - 48° 63.7° 53.4° - - -
4/25 11:20am 265 4 G 9 63° 60% - - 49° 63.7° 53.4° - - -
4/25 11:10am 253 5 G 8 62° 61% - - 49° 63.7° 53.4° - - -
4/25 11:00am 265 3 G 10 62° 62% - - 49° 63.5° 53.4° - - -
4/25 10:50am 251 4 G 9 61° 63% - - 48° 62.2° 53.4° - - -
4/25 10:40am 258 5 G 9 61° 64% - - 49° 62.2° 53.4° - - -
4/25 10:30am 267 5 G 9 60° 68% - - 50° 61.4° 53.4° - - -
4/25 10:20am 269 4 G 8 60° 69% - - 50° 61.1° 53.4° - - -
4/25 10:10am 258 5 G 8 59° 72% - - 50° 61.1° 53.4° - - -
4/25 10:00am 250 4 G 11 60° 69% - - 50° 61.1° 53.4° - - -
4/25 9:50am 158 2 G 4 59° 70% - - 50° 60.4° 53.4° - - -
4/25 9:40am 250 2 G 5 58° 73% - - 49° 59° 53.4° - - -
4/25 9:30am 259 4 G 7 58° 74% - - 49° 59° 53.4° - - -
4/25 9:20am 272 4 G 10 58° 72% - - 49° 59° 53.4° - - -
4/25 9:10am 264 4 G 7 57° 75% - - 49° 58.4° 53.4° - - -
4/25 9:00am 264 4 G 7 57° 76% - - 50° 57.7° 53.4° - - -
4/25 8:50am 278 2 G 5 57° 78% - - 50° 57.7° 53.4° - - -
4/25 8:40am 273 5 G 9 57° 78% - - 50° 57.7° 53.4° - - -
4/25 8:30am 276 4 G 6 56° 80% - - 50° 56.9° 53.4° - - -
4/25 8:20am 263 4 G 8 56° 81% - - 50° 56.8° 53.4° - - -
4/25 8:10am 261 3 G 5 56° 80% - - 50° 56.8° 53.4° - - -
4/25 8:00am 304 2 G 5 56° 81% - - 50° 56.8° 53.4° - - -
4/25 7:50am 299 2 G 3 55° 83% - - 50° 56.2° 53.4° - - -
4/25 7:40am 265 2 G 3 55° 84% - - 50° 55.3° 53.4° - - -
4/25 7:30am 264 3 G 5 55° 84% - - 50° 55.3° 53.4° - - -
4/25 7:20am 268 3 G 6 55° 84% - - 50° 55.3° 53.4° - - -
4/25 7:10am 253 2 G 4 54° 85% - - 50° 55.3° 53.4° - - -
4/25 7:00am 260 2 G 5 54° 85% - - 50° 55.3° 53.4° - - -
4/25 6:50am 304 1 G 3 54° 85% - - 50° 55.3° 53.4° - - -
4/25 6:40am 272 2 G 3 54° 85% - - 49° 55.3° 53.4° - - -
4/25 6:30am 275 3 G 5 54° 85% - - 49° 55.3° 53.4° - - -
4/25 6:20am 270 3 G 5 54° 84% - - 49° 55.3° 53.4° - - -
4/25 6:10am 274 3 G 6 54° 84% - - 49° 55.3° 53.4° - - -
4/25 6:00am 214 1 G 4 54° 84% - - 49° 55.3° 53.4° - - -
4/25 5:50am 249 3 G 6 54° 84% - - 49° 55.3° 53.5° - - -
4/25 5:40am 237 2 G 4 54° 83% - - 49° 55.3° 53.6° - - -
4/25 5:30am 271 2 G 5 54° 82% - - 49° 55.3° 53.7° - - -
4/25 5:20am 182 1 G 4 54° 82% - - 49° 55.3° 53.7° - - -
4/25 5:10am 284 2 G 5 55° 80% - - 49° 55.3° 53.7° - - -
4/25 5:00am 80 2 G 5 55° 81% - - 49° 55.3° 53.7° - - -
4/25 4:50am 77 3 G 5 54° 81% - - 49° 55.3° 53.7° - - -
4/25 4:40am 86 3 G 6 54° 82% - - 49° 55.3° 53.7° - - -
4/25 4:30am 84 2 G 4 54° 82% - - 49° 55.3° 53.7° - - -
4/25 4:20am 97 1 G 4 54° 82% - - 49° 55.3° 53.7° - - -
4/25 4:10am 95 2 G 6 54° 82% - - 49° 55.3° 53.7° - - -
4/25 4:00am 125 2 G 4 54° 83% - - 49° 55.3° 53.7° - - -
4/25 3:50am 222 2 G 4 54° 83% - - 49° 55.3° 53.7° - - -
4/25 3:40am 198 2 G 6 54° 84% - - 49° 55.3° 53.7° - - -
4/25 3:30am 244 2 G 4 54° 85% - - 50° 55.3° 53.7° - - -
4/25 3:20am 255 2 G 5 54° 85% - - 50° 55.3° 53.7° - - -
4/25 3:10am 224 4 G 9 54° 85% - - 50° 55.3° 53.7° - - -
4/25 3:00am 232 3 G 8 54° 85% - - 50° 55.3° 53.8° - - -
4/25 2:50am 241 4 G 8 54° 84% - - 49° 55.3° 53.8° - - -
4/25 2:40am 245 4 G 8 54° 82% - - 49° 55.3° 53.8° - - -
4/25 2:30am 244 4 G 8 55° 81% - - 49° 55.3° 53.8° - - -
4/25 2:20am 258 3 G 7 55° 80% - - 49° 55.3° 53.8° - - -
4/25 2:10am 217 2 G 6 55° 79% - - 48° 55.3° 53.8° - - -
4/25 2:00am 239 4 G 6 55° 79% - - 48° 55.3° 53.8° - - -
4/25 1:50am 245 2 G 4 55° 79% - - 48° 55.3° 53.8° - - -
4/25 1:40am 244 2 G 5 55° 80% - - 49° 55.1° 53.8° - - -
4/25 1:30am 242 2 G 4 55° 80% - - 49° 55° 53.8° - - -
4/25 1:20am 227 2 G 6 54° 80% - - 49° 55° 53.8° - - -
4/25 1:10am 225 2 G 6 55° 80% - - 48° 55° 53.8° - - -
4/25 1:00am 254 3 G 7 54° 80% - - 48° 55° 53.8° - - -
4/25 12:50am 226 3 G 6 54° 82% - - 49° 55° 53.8° - - -
4/25 12:40am 236 4 G 8 54° 84% - - 49° 55° 53.8° - - -
4/25 12:30am 260 4 G 7 54° 84% - - 50° 55° 53.8° - - -
4/25 12:20am 250 4 G 9 54° 83% - - 49° 55° 53.9° - - -
4/25 12:10am 214 2 G 7 55° 81% - - 49° 55° 54.3° - - -
4/25 12:00am 187 3 G 6 55° 81% - - 49° 68.3° 49.2° - - -
4/24 11:50pm 207 2 G 5 55° 81% - - 49° 68.3° 49.2° - - -
4/24 11:40pm 206 1 G 4 54° 82% - - 49° 68.3° 49.2° - - -
4/24 11:30pm 237 2 G 6 54° 82% - - 49° 68.3° 49.2° - - -
4/24 11:20pm 251 4 G 8 54° 84% - - 49° 68.3° 49.2° - - -
4/24 11:10pm 257 6 G 9 54° 85% - - 50° 68.3° 49.2° - - -
4/24 11:00pm 250 5 G 8 54° 85% - - 50° 68.3° 49.2° - - -
4/24 10:50pm 250 5 G 8 54° 86% - - 50° 68.3° 49.2° - - -
4/24 10:40pm 252 4 G 8 54° 87% - - 51° 68.3° 49.2° - - -
4/24 10:30pm 251 4 G 8 54° 87% - - 51° 68.3° 49.2° - - -
4/24 10:20pm 230 2 G 5 54° 87% - - 51° 68.3° 49.2° - - -
4/24 10:10pm 239 3 G 5 54° 87% - - 51° 68.3° 49.2° - - -
4/24 10:00pm 251 3 G 7 55° 86% - - 51° 68.3° 49.2° - - -
4/24 9:50pm 256 3 G 5 55° 85% - - 51° 68.3° 49.2° - - -
4/24 9:40pm 233 2 G 4 55° 84% - - 51° 68.3° 49.2° - - -
4/24 9:30pm 233 2 G 4 56° 84% - - 51° 68.3° 49.2° - - -
4/24 9:20pm 222 2 G 5 56° 84% - - 51° 68.3° 49.2° - - -
4/24 9:10pm 223 2 G 5 56° 84% - - 51° 68.3° 49.2° - - -
4/24 9:00pm 217 3 G 7 56° 84% - - 51° 68.3° 49.2° - - -
4/24 8:50pm 208 3 G 6 56° 84% - - 51° 68.3° 49.2° - - -
4/24 8:40pm 210 3 G 6 56° 83% - - 51° 68.3° 49.2° - - -
4/24 8:30pm 216 3 G 6 57° 83% - - 51° 68.3° 49.2° - - -
4/24 8:20pm 227 3 G 6 57° 82% - - 51° 68.3° 49.2° - - -
4/24 8:10pm 255 2 G 5 57° 82% - - 52° 68.3° 49.2° - - -
4/24 8:00pm 227 2 G 3 57° 82% - - 52° 68.3° 49.2° - - -
4/24 7:50pm 246 3 G 6 57° 82% - - 52° 68.3° 49.2° - - -
4/24 7:40pm 254 3 G 6 57° 81% - - 51° 68.3° 49.2° - - -
4/24 7:30pm 245 3 G 6 58° 79% - - 51° 68.3° 49.2° - - -
4/24 7:20pm 251 4 G 7 58° 78% - - 51° 68.3° 49.2° - - -
4/24 7:10pm 248 3 G 6 59° 76% - - 51° 68.3° 49.2° - - -
4/24 7:00pm 250 4 G 7 59° 75% - - 51° 68.3° 49.2° - - -
4/24 6:50pm 249 4 G 8 59° 74% - - 51° 68.3° 49.2° - - -
4/24 6:40pm 256 6 G 8 59° 74% - - 51° 68.3° 49.2° - - -
4/24 6:30pm 264 5 G 9 60° 73% - - 51° 68.3° 49.2° - - -
4/24 6:20pm 265 6 G 9 60° 72% - - 51° 68.3° 49.2° - - -
4/24 6:10pm 266 5 G 9 61° 71% - - 51° 68.3° 49.2° - - -
4/24 6:00pm 262 6 G 10 61° 69% - - 51° 68.3° 49.2° - - -